Time;durP1;ratioP1;P1;durP2;ratioP2;P2;SDS_P1;SDS_P2;PMS_P1;PMS_P2;Temp;Humidity;BMP_temperature;BMP_pressure;BME280_temperature;BME280_humidity;BME280_pressure;Samples;Min_cycle;Max_cycle;Signal;HPM_P1;HPM_P2
2023/01/15 00:00:25;;;;;;;2.80;0.60;;;28.30;99.90;;;;;;5065541;28;20232;-83
2023/01/15 00:02:57;;;;;;;1.67;0.57;;;28.30;99.90;;;;;;5068474;28;20202;-85
2023/01/15 00:05:28;;;;;;;2.80;0.70;;;28.30;99.90;;;;;;5066214;28;20292;-86
2023/01/15 00:07:58;;;;;;;0.93;0.60;;;28.50;99.90;;;;;;5057009;28;20235;-85
2023/01/15 00:10:29;;;;;;;1.65;0.60;;;28.40;99.90;;;;;;5062681;28;20220;-87
2023/01/15 00:13:02;;;;;;;1.50;0.60;;;28.30;99.90;;;;;;5074552;28;20687;-86
2023/01/15 00:15:34;;;;;;;0.88;0.57;;;28.60;99.90;;;;;;5082552;28;20272;-85
2023/01/15 00:18:06;;;;;;;1.30;0.80;;;28.60;99.90;;;;;;5064476;28;20196;-86
2023/01/15 00:20:37;;;;;;;0.98;0.75;;;28.80;99.90;;;;;;5069407;28;20257;-83
2023/01/15 00:27:37;;;;;;;2.75;1.08;;;28.80;99.90;;;;;;5055726;28;20204;-83
2023/01/15 00:28:51;;;;;;;1.95;0.88;;;28.90;99.90;;;;;;5063293;28;20200;-84
2023/01/15 00:31:22;;;;;;;1.88;0.80;;;28.90;99.90;;;;;;5071258;28;20196;-84
2023/01/15 00:33:52;;;;;;;1.25;0.63;;;29.00;99.90;;;;;;5060985;28;20272;-84
2023/01/15 00:36:24;;;;;;;2.78;0.82;;;29.00;99.90;;;;;;5085919;28;20283;-84
2023/01/15 00:38:55;;;;;;;1.52;0.80;;;29.20;99.90;;;;;;5065868;28;20193;-84
2023/01/15 00:41:26;;;;;;;2.60;0.77;;;29.30;99.90;;;;;;5074788;28;20637;-86
2023/01/15 00:43:59;;;;;;;4.40;0.73;;;29.10;99.90;;;;;;5055110;28;20268;-86
2023/01/15 00:46:30;;;;;;;1.58;0.80;;;29.20;99.90;;;;;;5063132;28;20248;-85
2023/01/15 00:49:01;;;;;;;1.65;0.80;;;29.30;99.90;;;;;;5055169;28;20196;-83
2023/01/15 00:51:32;;;;;;;3.35;0.93;;;29.30;99.90;;;;;;5055039;28;20554;-84
2023/01/15 00:54:03;;;;;;;3.47;0.82;;;29.30;99.90;;;;;;5054976;28;20632;-85
2023/01/15 00:56:35;;;;;;;2.75;0.70;;;29.30;99.90;;;;;;5055229;28;20268;-83
2023/01/15 00:59:08;;;;;;;3.17;1.00;;;29.40;99.90;;;;;;5066841;28;20189;-85
2023/01/15 01:01:39;;;;;;;3.65;0.80;;;29.40;99.90;;;;;;5074928;28;20193;-89
2023/01/15 01:04:10;;;;;;;2.13;0.85;;;29.20;99.90;;;;;;5074906;28;20193;-83
2023/01/15 01:06:41;;;;;;;2.83;0.90;;;29.30;99.90;;;;;;5074883;28;20217;-84
2023/01/15 01:09:14;;;;;;;1.60;0.90;;;29.40;99.90;;;;;;5074099;28;20276;-84
2023/01/15 01:11:45;;;;;;;0.93;0.70;;;29.50;99.90;;;;;;5074950;28;20292;-83
2023/01/15 01:14:18;;;;;;;1.60;0.90;;;29.40;99.90;;;;;;5074737;28;20195;-86
2023/01/15 01:16:49;;;;;;;2.08;0.80;;;29.30;99.90;;;;;;5075129;28;20220;-85
2023/01/15 01:19:23;;;;;;;1.95;0.85;;;29.10;99.90;;;;;;5074697;28;20192;-85
2023/01/15 01:21:54;;;;;;;3.00;0.90;;;29.10;99.90;;;;;;5074396;28;20272;-86
2023/01/15 01:24:27;;;;;;;2.95;0.80;;;29.10;99.90;;;;;;5074144;28;20319;-85
2023/01/15 01:26:57;;;;;;;2.00;0.75;;;29.10;99.90;;;;;;5074332;28;20217;-82
2023/01/15 01:29:30;;;;;;;3.55;0.90;;;29.20;99.90;;;;;;5074463;28;20193;-85
2023/01/15 01:32:01;;;;;;;4.28;0.90;;;28.90;99.90;;;;;;5074329;28;20276;-82
2023/01/15 01:34:33;;;;;;;3.20;1.00;;;28.80;99.90;;;;;;5074630;28;20189;-85
2023/01/15 01:37:04;;;;;;;2.60;0.75;;;28.70;99.90;;;;;;5074030;28;20280;-83
2023/01/15 01:39:35;;;;;;;1.83;0.70;;;28.80;99.90;;;;;;5074176;28;20651;-82
2023/01/15 01:42:06;;;;;;;3.13;0.85;;;28.80;99.90;;;;;;5074476;28;20275;-81
2023/01/15 01:45:03;;;;;;;3.85;0.85;;;28.80;99.90;;;;;;5074053;28;20225;-84
2023/01/15 01:47:36;;;;;;;4.13;0.88;;;28.40;99.90;;;;;;5073818;28;20256;-82
2023/01/15 01:50:10;;;;;;;2.65;0.85;;;28.40;99.90;;;;;;5074018;28;20592;-86
2023/01/15 01:52:46;;;;;;;2.17;0.88;;;28.60;99.90;;;;;;5073687;28;20193;-84
2023/01/15 01:55:19;;;;;;;3.45;0.80;;;28.50;99.90;;;;;;5073959;28;20188;-84
2023/01/15 01:57:52;;;;;;;3.95;0.90;;;28.60;99.90;;;;;;5073585;28;20276;-84
2023/01/15 02:00:25;;;;;;;2.80;0.82;;;28.80;99.90;;;;;;5073871;28;20566;-84
2023/01/15 02:02:57;;;;;;;4.28;0.90;;;29.00;99.90;;;;;;5073688;28;20220;-83
2023/01/15 02:05:33;;;;;;;3.63;1.02;;;29.30;99.90;;;;;;5073792;28;20192;-82
2023/01/15 02:08:04;;;;;;;3.25;0.90;;;29.30;99.90;;;;;;5073462;28;20255;-82
2023/01/15 02:10:36;;;;;;;1.70;0.80;;;29.40;99.90;;;;;;5073709;28;20197;-80
2023/01/15 02:13:11;;;;;;;4.38;1.00;;;29.20;99.90;;;;;;5073897;28;20292;-83
2023/01/15 02:15:49;;;;;;;3.80;1.00;;;29.00;99.90;;;;;;5073511;28;20283;-82
2023/01/15 02:18:25;;;;;;;4.70;0.90;;;28.90;99.90;;;;;;5073473;28;20280;-84
2023/01/15 02:20:59;;;;;;;4.35;0.90;;;29.00;99.90;;;;;;5072399;28;20189;-81
2023/01/15 02:23:50;;;;;;;2.65;0.90;;;28.80;99.90;;;;;;5073363;28;20188;-79
2023/01/15 02:26:57;;;;;;;1.45;0.80;;;28.90;99.90;;;;;;5073481;28;20272;-82
2023/01/15 02:29:36;;;;;;;1.90;0.93;;;28.70;99.90;;;;;;5064708;28;20205;-84
2023/01/15 02:32:10;;;;;;;2.95;0.95;;;28.80;99.90;;;;;;5073288;28;20189;-82
2023/01/15 02:34:47;;;;;;;1.88;0.70;;;28.90;99.90;;;;;;5073296;28;20266;-83
2023/01/15 02:37:22;;;;;;;4.22;0.98;;;29.10;99.90;;;;;;5073106;28;20640;-83
2023/01/15 02:39:56;;;;;;;2.70;0.82;;;29.20;99.90;;;;;;5073075;28;20196;-82
2023/01/15 02:42:34;;;;;;;2.92;1.15;;;29.10;99.90;;;;;;5073169;28;20190;-83
2023/01/15 02:45:07;;;;;;;2.05;1.08;;;28.70;99.90;;;;;;5073073;28;20220;-81
2023/01/15 02:47:43;;;;;;;2.70;1.10;;;28.60;99.90;;;;;;5073012;28;20227;-82
2023/01/15 02:50:17;;;;;;;3.33;0.73;;;28.70;99.90;;;;;;5073002;28;20199;-81
2023/01/15 02:52:51;;;;;;;4.85;0.93;;;28.90;99.90;;;;;;5073012;28;20199;-82
2023/01/15 02:55:27;;;;;;;1.75;0.90;;;28.80;99.90;;;;;;5073055;28;20571;-82
2023/01/15 02:58:04;;;;;;;4.70;0.90;;;28.70;99.90;;;;;;5072977;28;20283;-80
2023/01/15 03:00:38;;;;;;;2.05;0.80;;;28.70;99.90;;;;;;5073247;28;20214;-83
2023/01/15 03:03:16;;;;;;;3.10;0.88;;;28.60;99.90;;;;;;5073017;28;20188;-82
2023/01/15 03:05:54;;;;;;;3.10;0.90;;;28.40;99.90;;;;;;5072687;28;20193;-80
2023/01/15 03:08:24;;;;;;;4.00;0.90;;;28.40;99.90;;;;;;5073006;28;20256;-81
2023/01/15 03:11:03;;;;;;;3.17;0.88;;;28.50;99.90;;;;;;5073427;28;20268;-86
2023/01/15 03:13:43;;;;;;;2.85;0.80;;;28.40;99.90;;;;;;5072868;28;20207;-85
2023/01/15 03:16:38;;;;;;;4.15;1.33;;;28.50;99.90;;;;;;5073105;28;20232;-84
2023/01/15 03:19:19;;;;;;;2.30;0.77;;;28.70;99.90;;;;;;5072785;28;20201;-82
2023/01/15 03:21:54;;;;;;;3.65;1.00;;;28.70;99.90;;;;;;5072614;28;20189;-82
2023/01/15 03:24:32;;;;;;;2.15;0.98;;;28.70;99.90;;;;;;5072797;28;20327;-84
2023/01/15 03:27:03;;;;;;;1.80;0.90;;;28.80;99.90;;;;;;5072746;28;20189;-81
2023/01/15 03:29:39;;;;;;;2.72;1.48;;;28.80;99.90;;;;;;5072826;28;20648;-82
2023/01/15 03:32:11;;;;;;;3.63;1.10;;;28.80;99.90;;;;;;5075211;28;20189;-83
2023/01/15 03:34:45;;;;;;;2.70;0.90;;;28.80;99.90;;;;;;5076467;28;20185;-83
2023/01/15 03:37:16;;;;;;;3.20;0.95;;;28.90;99.90;;;;;;5076552;28;20288;-83
2023/01/15 03:39:47;;;;;;;6.13;1.10;;;28.90;99.90;;;;;;5076385;28;20193;-81
2023/01/15 03:42:28;;;;;;;2.05;0.80;;;28.90;99.90;;;;;;5076547;28;20272;-82
2023/01/15 03:45:08;;;;;;;3.25;1.08;;;28.90;99.90;;;;;;5076543;28;20195;-84
2023/01/15 03:47:51;;;;;;;3.42;0.85;;;28.80;99.90;;;;;;5075953;28;20743;-83
2023/01/15 03:50:29;;;;;;;1.27;0.80;;;29.00;99.90;;;;;;5076349;28;20630;-80
2023/01/15 03:53:09;;;;;;;2.20;0.82;;;29.10;99.90;;;;;;5076305;28;20192;-82
2023/01/15 03:55:45;;;;;;;3.20;0.80;;;29.00;99.90;;;;;;5076182;28;20189;-81
2023/01/15 03:58:20;;;;;;;2.22;0.80;;;29.00;99.90;;;;;;5076197;28;20650;-81
2023/01/15 04:00:55;;;;;;;3.67;0.90;;;29.10;99.90;;;;;;5076148;28;20192;-79
2023/01/15 04:03:29;;;;;;;1.73;0.80;;;28.90;99.90;;;;;;5075795;28;20185;-83
2023/01/15 04:06:03;;;;;;;3.85;0.80;;;28.70;99.90;;;;;;5076044;28;20567;-81
2023/01/15 04:08:39;;;;;;;2.22;0.90;;;28.70;99.90;;;;;;5075870;28;20219;-81
2023/01/15 04:11:10;;;;;;;1.13;0.70;;;28.70;99.90;;;;;;5075954;28;20562;-82
2023/01/15 04:13:41;;;;;;;4.75;0.80;;;28.70;99.90;;;;;;5075564;28;20185;-82
2023/01/15 04:16:14;;;;;;;4.90;1.10;;;28.80;99.90;;;;;;5075831;28;20195;-80
2023/01/15 04:18:45;;;;;;;3.78;0.90;;;28.60;99.90;;;;;;5075612;28;20195;-83
2023/01/15 04:21:16;;;;;;;4.47;1.00;;;28.60;99.90;;;;;;5072628;28;20195;-81
2023/01/15 04:23:47;;;;;;;3.70;1.00;;;28.70;99.90;;;;;;5074641;28;20204;-83
2023/01/15 04:26:18;;;;;;;4.15;1.10;;;28.70;99.90;;;;;;5075696;28;20189;-84
2023/01/15 04:28:49;;;;;;;2.33;0.90;;;28.70;99.90;;;;;;5075642;28;20223;-83
2023/01/15 04:31:22;;;;;;;2.00;0.88;;;28.70;99.90;;;;;;5075450;28;20645;-84
2023/01/15 04:33:53;;;;;;;4.40;0.95;;;28.70;99.90;;;;;;5074106;28;20566;-82
2023/01/15 04:36:24;;;;;;;4.50;1.05;;;28.70;99.90;;;;;;5074594;28;20189;-81
2023/01/15 04:38:56;;;;;;;3.53;1.00;;;28.80;99.90;;;;;;5075577;28;20193;-83
2023/01/15 04:44:14;;;;;;;1.50;0.82;;;28.80;99.90;;;;;;5074322;28;20258;-83
2023/01/15 04:46:48;;;;;;;1.58;0.70;;;28.90;99.90;;;;;;5075217;28;20276;-80
2023/01/15 04:49:20;;;;;;;4.47;1.10;;;28.90;99.90;;;;;;5075318;28;20246;-82
2023/01/15 04:51:51;;;;;;;4.35;0.90;;;28.80;99.90;;;;;;5075189;28;20710;-81
2023/01/15 04:54:23;;;;;;;3.47;0.90;;;28.70;99.90;;;;;;5075240;28;20193;-82
2023/01/15 04:56:55;;;;;;;2.70;1.02;;;28.60;99.90;;;;;;5075095;28;20561;-80
2023/01/15 04:59:28;;;;;;;2.33;0.82;;;28.50;99.90;;;;;;5075002;28;20199;-81
2023/01/15 05:02:01;;;;;;;3.35;0.85;;;28.40;99.90;;;;;;5075066;28;20193;-77
2023/01/15 05:04:32;;;;;;;4.22;1.05;;;28.50;99.90;;;;;;5074993;28;20644;-79
2023/01/15 05:07:05;;;;;;;2.60;0.90;;;28.50;99.90;;;;;;5074975;28;20193;-82
2023/01/15 05:09:36;;;;;;;3.55;0.90;;;28.60;99.90;;;;;;5074808;28;20216;-82
2023/01/15 05:12:07;;;;;;;2.15;0.95;;;28.50;99.90;;;;;;5074811;28;20189;-78
2023/01/15 05:14:38;;;;;;;2.63;0.88;;;28.40;99.90;;;;;;5074708;28;20200;-79
2023/01/15 05:17:11;;;;;;;2.53;0.95;;;28.40;99.90;;;;;;5074745;28;20200;-80
2023/01/15 05:19:42;;;;;;;2.45;0.90;;;28.30;99.90;;;;;;5074579;28;20193;-79
2023/01/15 05:22:13;;;;;;;1.77;1.00;;;28.20;99.90;;;;;;5074657;28;20622;-75
2023/01/15 05:24:44;;;;;;;3.83;1.10;;;28.20;99.90;;;;;;5074525;28;20241;-82
2023/01/15 05:27:15;;;;;;;3.47;1.33;;;28.20;99.90;;;;;;5074482;28;20189;-80
2023/01/15 05:29:46;;;;;;;5.13;1.40;;;28.20;99.90;;;;;;5074419;28;20755;-82
2023/01/15 05:32:19;;;;;;;3.78;1.10;;;28.20;99.90;;;;;;5074379;28;20200;-78
2023/01/15 05:34:50;;;;;;;3.78;1.02;;;28.30;99.90;;;;;;5074474;28;20185;-81
2023/01/15 05:37:21;;;;;;;2.97;1.00;;;28.30;99.90;;;;;;5074274;28;20196;-78
2023/01/15 05:39:52;;;;;;;6.10;0.80;;;28.40;99.90;;;;;;5074259;28;20283;-83
2023/01/15 05:42:23;;;;;;;3.47;1.08;;;28.30;99.90;;;;;;5074713;28;20221;-80
2023/01/15 05:44:54;;;;;;;3.47;0.80;;;28.20;99.90;;;;;;5074054;28;20193;-83
2023/01/15 05:47:27;;;;;;;3.13;1.15;;;28.20;99.90;;;;;;5074157;28;20276;-82
2023/01/15 05:49:58;;;;;;;3.05;1.20;;;28.30;99.90;;;;;;5074049;28;20766;-80
2023/01/15 05:52:29;;;;;;;6.72;1.58;;;28.20;99.90;;;;;;5073942;28;20185;-82
2023/01/15 05:55:00;;;;;;;4.03;1.15;;;28.20;99.90;;;;;;5073778;28;20193;-81
2023/01/15 05:57:31;;;;;;;4.47;1.02;;;28.10;99.90;;;;;;5082335;28;20196;-81
2023/01/15 06:00:02;;;;;;;3.90;1.00;;;28.00;99.90;;;;;;5067172;28;20708;-81
2023/01/15 06:02:35;;;;;;;3.08;0.90;;;27.90;99.90;;;;;;5069381;28;20204;-82
2023/01/15 06:05:06;;;;;;;4.50;1.27;;;27.80;99.90;;;;;;5055823;28;20657;-81
2023/01/15 06:07:37;;;;;;;4.53;1.17;;;27.80;99.90;;;;;;5070477;28;20271;-80
2023/01/15 06:10:09;;;;;;;7.03;1.00;;;27.80;99.90;;;;;;5053470;28;20208;-82
2023/01/15 06:12:40;;;;;;;5.03;1.00;;;27.80;99.90;;;;;;5063116;28;20200;-82
2023/01/15 06:15:12;;;;;;;4.68;1.20;;;27.70;99.90;;;;;;5073416;28;20240;-79
2023/01/15 06:17:45;;;;;;;3.42;0.82;;;27.80;99.90;;;;;;5073249;28;20195;-84
2023/01/15 06:20:16;;;;;;;3.63;0.95;;;27.70;99.90;;;;;;5053478;28;20284;-82
2023/01/15 06:22:47;;;;;;;6.63;1.30;;;27.50;99.90;;;;;;5065114;28;20201;-85
2023/01/15 06:25:18;;;;;;;4.68;1.23;;;27.50;99.90;;;;;;5062516;28;20667;-83
2023/01/15 06:27:49;;;;;;;6.22;1.38;;;27.50;99.90;;;;;;5053563;28;20194;-81
2023/01/15 06:30:21;;;;;;;3.00;0.80;;;27.40;99.90;;;;;;5078148;28;20597;-85
2023/01/15 06:32:53;;;;;;;6.78;1.33;;;27.40;99.90;;;;;;5085931;28;20206;-83
2023/01/15 06:35:25;;;;;;;4.28;1.20;;;27.50;99.90;;;;;;5057441;28;20215;-81
2023/01/15 06:37:56;;;;;;;3.65;1.35;;;27.60;99.90;;;;;;5072979;28;20267;-82
2023/01/15 06:40:27;;;;;;;6.57;1.20;;;27.60;99.90;;;;;;5069141;28;20209;-86
2023/01/15 06:48:51;;;;;;;3.05;1.10;;;27.40;99.90;;;;;;5072918;28;20273;-83
2023/01/15 06:51:22;;;;;;;4.03;1.15;;;27.30;99.90;;;;;;5076832;28;20205;-82
2023/01/15 06:53:53;;;;;;;4.25;1.20;;;27.30;99.90;;;;;;5064177;28;20208;-83
2023/01/15 06:56:25;;;;;;;5.13;1.30;;;27.30;99.90;;;;;;5057635;28;20205;-88
2023/01/15 06:58:57;;;;;;;4.28;1.10;;;27.30;99.90;;;;;;5056201;28;20625;-85
2023/01/15 07:01:29;;;;;;;3.00;1.08;;;27.30;99.90;;;;;;5061216;28;20284;-83
2023/01/15 07:04:02;;;;;;;5.05;0.95;;;27.20;99.90;;;;;;5052460;28;20698;-85
2023/01/15 07:06:34;;;;;;;5.32;1.38;;;27.20;99.90;;;;;;5067219;28;20204;-82
2023/01/15 07:09:05;;;;;;;4.78;1.27;;;27.20;99.90;;;;;;5075297;28;20221;-85
2023/01/15 07:11:48;;;;;;;3.72;1.02;;;27.10;99.90;;;;;;5073934;28;20621;-87
2023/01/15 07:14:20;;;;;;;8.73;1.40;;;27.00;99.90;;;;;;5056073;28;20611;-89
2023/01/15 07:16:52;;;;;;;6.40;1.23;;;26.90;99.90;;;;;;5056832;28;20292;-83
2023/01/15 07:19:24;;;;;;;4.53;1.10;;;26.80;99.90;;;;;;5060995;28;20201;-85
2023/01/15 07:21:56;;;;;;;4.30;1.17;;;26.80;99.90;;;;;;5068623;28;20668;-87
2023/01/15 07:24:26;;;;;;;4.72;1.20;;;26.70;99.90;;;;;;5060076;28;20320;-86
2023/01/15 07:26:58;;;;;;;5.00;1.25;;;26.70;99.90;;;;;;5074053;28;20205;-84
2023/01/15 07:29:28;;;;;;;7.82;1.30;;;26.70;99.90;;;;;;5064582;28;20703;-84
2023/01/15 07:31:59;;;;;;;7.82;1.60;;;26.60;99.90;;;;;;5065270;28;20309;-85
2023/01/15 07:34:32;;;;;;;5.63;1.05;;;26.50;99.90;;;;;;5078920;28;20199;-83
2023/01/15 07:37:04;;;;;;;8.90;1.33;;;26.40;99.90;;;;;;5074211;28;20271;-88
2023/01/15 07:39:34;;;;;;;6.78;1.30;;;26.10;99.90;;;;;;5073538;28;20191;-82
2023/01/15 07:50:29;;;;;;;7.57;1.45;;;25.90;99.90;;;;;;5064876;28;20708;-84
2023/01/15 07:53:00;;;;;;;6.70;1.40;;;25.80;99.90;;;;;;5064705;28;20201;-86
2023/01/15 07:55:33;;;;;;;6.57;1.40;;;25.80;99.90;;;;;;5059058;28;20310;-85
2023/01/15 07:58:04;;;;;;;5.68;1.25;;;25.80;99.90;;;;;;5073950;28;20201;-82
2023/01/15 08:00:35;;;;;;;7.25;1.40;;;25.60;99.90;;;;;;5075100;28;20201;-86
2023/01/15 08:03:08;;;;;;;8.98;1.42;;;25.60;99.90;;;;;;5063616;28;20286;-81
2023/01/15 08:05:41;;;;;;;6.18;1.40;;;25.50;99.90;;;;;;5057512;28;20228;-83
2023/01/15 08:08:18;;;;;;;7.05;1.50;;;25.50;99.90;;;;;;5055795;28;20284;-84
2023/01/15 08:16:19;;;;;;;6.57;1.55;;;25.40;99.90;;;;;;5063289;28;20562;-85
2023/01/15 08:18:50;;;;;;;7.30;1.30;;;25.30;99.90;;;;;;5053900;28;20675;-85
2023/01/15 08:21:23;;;;;;;9.20;1.52;;;25.30;99.90;;;;;;5064041;28;20202;-85
2023/01/15 08:23:54;;;;;;;6.88;1.30;;;25.30;99.90;;;;;;5054774;28;20286;-84
2023/01/15 08:26:25;;;;;;;5.40;1.13;;;25.20;99.90;;;;;;5062144;28;20203;-84
2023/01/15 08:28:56;;;;;;;7.70;1.42;;;25.20;99.90;;;;;;5058548;28;20296;-84
2023/01/15 08:31:27;;;;;;;7.35;1.60;;;25.20;99.90;;;;;;5070674;28;20276;-80
2023/01/15 08:33:58;;;;;;;7.45;1.30;;;25.10;99.90;;;;;;5065035;28;20199;-83
2023/01/15 08:36:31;;;;;;;5.65;1.30;;;25.00;99.90;;;;;;5058331;28;21171;-81
2023/01/15 08:39:02;;;;;;;8.02;1.67;;;25.00;99.90;;;;;;5059216;28;20205;-84
2023/01/15 08:41:35;;;;;;;8.20;1.55;;;25.00;99.90;;;;;;5059531;28;20291;-84
2023/01/15 08:44:06;;;;;;;7.20;1.63;;;24.90;99.90;;;;;;5067820;28;20207;-86
2023/01/15 08:46:37;;;;;;;7.63;1.38;;;24.90;99.90;;;;;;5069643;28;20201;-83
2023/01/15 08:49:08;;;;;;;7.43;1.60;;;24.90;99.90;;;;;;5075757;28;20304;-83
2023/01/15 08:51:40;;;;;;;9.73;1.65;;;24.80;99.90;;;;;;5072018;28;20219;-79
2023/01/15 08:54:11;;;;;;;7.50;1.45;;;24.70;99.90;;;;;;5073062;28;20283;-82
2023/01/15 08:56:42;;;;;;;6.18;1.30;;;24.70;99.90;;;;;;5065841;28;20203;-84
2023/01/15 08:59:13;;;;;;;8.02;1.30;;;24.80;99.90;;;;;;5065702;28;20197;-81
2023/01/15 09:01:45;;;;;;;9.57;1.40;;;24.70;99.90;;;;;;5065342;28;20644;-86
2023/01/15 09:04:18;;;;;;;8.38;1.50;;;24.70;99.90;;;;;;5068956;28;20225;-86
2023/01/15 09:06:52;;;;;;;7.55;1.30;;;24.70;99.90;;;;;;5064876;28;20189;-84
2023/01/15 09:09:23;;;;;;;8.90;1.48;;;24.70;99.90;;;;;;5059787;28;20208;-84
2023/01/15 09:11:54;;;;;;;4.57;1.17;;;24.70;99.90;;;;;;5071868;28;20213;-84
2023/01/15 09:14:24;;;;;;;9.77;1.30;;;24.70;99.90;;;;;;5067827;28;20277;-84
2023/01/15 09:16:56;;;;;;;9.73;1.50;;;24.70;99.90;;;;;;5074843;28;20279;-82
2023/01/15 09:19:27;;;;;;;6.20;1.75;;;24.70;99.90;;;;;;5069833;28;20200;-83
2023/01/15 09:22:00;;;;;;;7.63;1.20;;;24.60;99.90;;;;;;5065532;28;20204;-86
2023/01/15 09:24:31;;;;;;;8.75;1.50;;;24.60;99.90;;;;;;5074916;28;20232;-87
2023/01/15 09:27:02;;;;;;;8.98;1.52;;;24.60;99.90;;;;;;5072856;28;20275;-85
2023/01/15 09:29:33;;;;;;;9.10;1.60;;;24.60;99.90;;;;;;5053420;28;20329;-84
2023/01/15 09:32:04;;;;;;;8.95;1.15;;;24.60;99.90;;;;;;5073353;28;20307;-85
2023/01/15 09:34:35;;;;;;;6.57;1.75;;;24.60;99.90;;;;;;5067878;28;20281;-86
2023/01/15 09:37:09;;;;;;;8.07;1.27;;;24.60;99.90;;;;;;5072602;28;20204;-85
2023/01/15 09:39:41;;;;;;;9.45;1.40;;;24.50;99.90;;;;;;5071948;28;20197;-86
2023/01/15 09:42:26;;;;;;;7.20;1.35;;;24.50;99.90;;;;;;5072815;28;20632;-84
2023/01/15 09:45:17;;;;;;;5.22;1.10;;;24.60;99.90;;;;;;5061094;28;20236;-84
2023/01/15 09:48:01;;;;;;;10.77;1.38;;;24.50;99.90;;;;;;5072930;28;20284;-86
2023/01/15 09:50:41;;;;;;;8.88;1.25;;;24.50;99.90;;;;;;5068778;28;20219;-86
2023/01/15 09:53:37;;;;;;;7.55;1.30;;;24.50;99.90;;;;;;5071801;28;20194;-86
2023/01/15 09:56:13;;;;;;;9.40;1.80;;;24.50;99.90;;;;;;5062218;28;20203;-86
2023/01/15 09:58:45;;;;;;;7.35;1.63;;;24.40;99.90;;;;;;5077936;28;20204;-86
2023/01/15 10:01:20;;;;;;;8.07;1.35;;;24.50;99.90;;;;;;5073126;28;20678;-85
2023/01/15 10:03:55;;;;;;;9.23;1.67;;;24.40;99.90;;;;;;5070039;28;20195;-85
2023/01/15 10:06:29;;;;;;;6.40;1.50;;;24.40;99.90;;;;;;5075438;28;20207;-86
2023/01/15 10:09:08;;;;;;;8.38;1.38;;;24.30;99.90;;;;;;5073570;28;20208;-85
2023/01/15 10:14:41;;;;;;;6.35;1.45;;;24.30;99.90;;;;;;5060203;28;20655;-85
2023/01/15 10:17:36;;;;;;;6.72;1.23;;;24.20;99.90;;;;;;5057834;28;20192;-87
2023/01/15 10:20:08;;;;;;;7.20;1.40;;;24.20;99.90;;;;;;5063869;28;20201;-87
2023/01/15 10:23:00;;;;;;;7.55;1.38;;;24.20;99.90;;;;;;5061604;28;20656;-85
2023/01/15 10:25:40;;;;;;;12.27;1.65;;;24.10;99.90;;;;;;5069832;28;20234;-86
2023/01/15 10:28:20;;;;;;;7.32;1.40;;;24.10;99.90;;;;;;5090152;28;20185;-87
2023/01/15 10:30:55;;;;;;;6.30;1.30;;;24.00;99.90;;;;;;5074496;28;20244;-86
2023/01/15 10:33:42;;;;;;;6.60;1.48;;;24.00;99.90;;;;;;5077115;28;20267;-86
2023/01/15 10:36:19;;;;;;;8.55;1.67;;;24.00;99.90;;;;;;5086688;28;20703;-84
2023/01/15 10:38:58;;;;;;;7.43;1.52;;;24.00;99.90;;;;;;5073455;28;20193;-87
2023/01/15 10:41:46;;;;;;;6.38;1.45;;;24.00;99.90;;;;;;5082799;28;20224;-86
2023/01/15 10:44:22;;;;;;;8.05;1.50;;;24.00;99.90;;;;;;5093638;28;20192;-85
2023/01/15 10:46:57;;;;;;;5.30;1.20;;;24.00;99.90;;;;;;5086274;28;20660;-86
2023/01/15 10:49:31;;;;;;;5.38;1.20;;;24.00;99.90;;;;;;5072585;28;20291;-85
2023/01/15 10:52:09;;;;;;;6.90;1.25;;;24.00;99.90;;;;;;5073253;28;20664;-86
2023/01/15 10:54:44;;;;;;;8.25;1.50;;;24.00;99.90;;;;;;5061433;28;20287;-87
2023/01/15 10:57:23;;;;;;;8.98;1.25;;;24.00;99.90;;;;;;5053306;28;20215;-81
2023/01/15 10:59:58;;;;;;;8.43;1.55;;;24.00;99.90;;;;;;5079173;28;20199;-86
2023/01/15 11:02:35;;;;;;;7.28;1.30;;;24.00;99.90;;;;;;5069948;28;20196;-86
2023/01/15 11:05:07;;;;;;;6.57;1.52;;;24.00;99.90;;;;;;5072663;28;20207;-86
2023/01/15 11:07:42;;;;;;;6.03;1.27;;;24.00;99.90;;;;;;5073452;28;20286;-85
2023/01/15 11:10:16;;;;;;;7.32;1.30;;;24.00;99.90;;;;;;5076632;28;20707;-84
2023/01/15 11:21:24;;;;;;;8.15;1.38;;;23.90;99.90;;;;;;5072928;28;20230;-86
2023/01/15 11:23:57;;;;;;;8.50;1.10;;;23.90;99.90;;;;;;5072785;28;20189;-85
2023/01/15 11:26:29;;;;;;;7.13;1.50;;;23.90;99.90;;;;;;5072605;28;20204;-86
2023/01/15 11:29:14;;;;;;;7.15;1.20;;;23.80;99.90;;;;;;5058094;28;20202;-85
2023/01/15 11:31:45;;;;;;;7.55;1.10;;;23.80;99.90;;;;;;5052238;28;20200;-85
2023/01/15 11:34:23;;;;;;;7.82;1.08;;;23.80;99.90;;;;;;5052825;28;20224;-84
2023/01/15 11:37:05;;;;;;;5.35;1.10;;;23.80;99.90;;;;;;5052783;28;20191;-86
2023/01/15 11:39:36;;;;;;;9.00;1.52;;;23.80;99.90;;;;;;5068466;28;20275;-86
2023/01/15 11:50:51;;;;;;;6.65;1.30;;;23.70;99.90;;;;;;5061613;28;20293;-87
2023/01/15 11:53:32;;;;;;;6.43;1.38;;;23.80;99.90;;;;;;5074053;28;20192;-86
2023/01/15 11:56:11;;;;;;;10.63;1.30;;;23.70;99.90;;;;;;5073068;28;20200;-89
2023/01/15 11:58:50;;;;;;;5.78;1.20;;;23.70;99.90;;;;;;5071675;28;20611;-85
2023/01/15 12:01:29;;;;;;;7.38;1.20;;;23.70;99.90;;;;;;5068138;28;20254;-87
2023/01/15 12:04:02;;;;;;;6.20;1.33;;;23.70;99.90;;;;;;5068532;28;20262;-86
2023/01/15 12:06:37;;;;;;;11.25;1.48;;;23.70;99.90;;;;;;5076562;28;20185;-88
2023/01/15 12:09:16;;;;;;;7.80;2.28;;;23.70;99.90;;;;;;5076752;28;20189;-88
2023/01/15 12:12:09;;;;;;;6.10;1.10;;;23.70;99.90;;;;;;5074559;28;20708;-86
2023/01/15 12:15:05;;;;;;;5.72;1.20;;;23.60;99.90;;;;;;5075830;28;20702;-83
2023/01/15 12:18:12;;;;;;;8.50;1.40;;;23.60;99.90;;;;;;5073624;28;20196;-85
2023/01/15 12:21:04;;;;;;;9.27;1.25;;;23.60;99.90;;;;;;5063603;28;20208;-86
2023/01/15 12:27:24;;;;;;;8.90;1.05;;;23.60;99.90;;;;;;5070262;28;20208;-86
2023/01/15 12:30:02;;;;;;;8.38;1.60;;;23.60;99.90;;;;;;5074806;28;20258;-86
2023/01/15 12:32:38;;;;;;;4.10;1.20;;;23.60;99.90;;;;;;5074193;28;20199;-87
2023/01/15 12:35:22;;;;;;;6.93;1.50;;;23.50;99.90;;;;;;5072871;28;20617;-87
2023/01/15 12:37:58;;;;;;;5.55;1.13;;;23.50;99.90;;;;;;5055533;28;20256;-86
2023/01/15 12:40:34;;;;;;;8.00;1.40;;;23.40;99.90;;;;;;5056555;28;20228;-83
2023/01/15 12:45:56;;;;;;;7.15;1.30;;;23.40;99.90;;;;;;5075339;28;20736;-87
2023/01/15 12:48:35;;;;;;;6.75;1.10;;;23.40;99.90;;;;;;5075400;28;20676;-87
2023/01/15 12:51:15;;;;;;;6.75;1.40;;;23.40;99.90;;;;;;5077964;28;20744;-87
2023/01/15 12:53:49;;;;;;;5.53;1.23;;;23.40;99.90;;;;;;5074471;28;20288;-87
2023/01/15 12:56:27;;;;;;;5.88;1.33;;;23.30;99.90;;;;;;5075165;28;20279;-86
2023/01/15 12:59:03;;;;;;;5.38;1.15;;;23.30;99.90;;;;;;5061634;28;20207;-86
2023/01/15 13:01:40;;;;;;;8.77;1.58;;;23.30;99.90;;;;;;5064809;28;20279;-86
2023/01/15 13:04:18;;;;;;;7.82;1.35;;;23.30;99.90;;;;;;5074095;28;20200;-86
2023/01/15 13:06:55;;;;;;;13.25;1.50;;;23.30;99.90;;;;;;5074951;28;20213;-87
2023/01/15 13:09:38;;;;;;;8.15;1.38;;;23.30;99.90;;;;;;5075684;28;20197;-86
2023/01/15 13:12:15;;;;;;;7.40;1.20;;;23.30;99.90;;;;;;5074922;28;20199;-86
2023/01/15 13:14:46;;;;;;;10.57;1.52;;;23.20;99.90;;;;;;5074329;28;20250;-86
2023/01/15 13:17:25;;;;;;;8.77;1.42;;;23.20;99.90;;;;;;5074896;28;20272;-87
2023/01/15 13:20:18;;;;;;;10.70;1.55;;;23.20;99.90;;;;;;5074854;28;20232;-87
2023/01/15 13:23:00;;;;;;;6.10;1.27;;;23.20;99.90;;;;;;5074428;28;20200;-87
2023/01/15 13:25:53;;;;;;;13.25;1.33;;;23.20;99.90;;;;;;5074456;28;20324;-87
2023/01/15 13:28:42;;;;;;;10.00;1.30;;;23.20;99.90;;;;;;5054998;28;20240;-85
2023/01/15 13:31:37;;;;;;;7.38;1.23;;;23.20;99.90;;;;;;5054475;28;20217;-86
2023/01/15 13:34:15;;;;;;;5.97;1.40;;;23.20;99.90;;;;;;5064101;28;20201;-86
2023/01/15 13:36:48;;;;;;;8.65;1.27;;;23.20;99.90;;;;;;5074352;28;20199;-86
2023/01/15 13:39:24;;;;;;;10.88;1.45;;;23.10;99.90;;;;;;5074634;28;20193;-87
2023/01/15 13:44:49;;;;;;;6.78;1.02;;;23.10;99.90;;;;;;5068793;28;20274;-87
2023/01/15 13:47:25;;;;;;;8.13;1.40;;;23.10;99.90;;;;;;5074538;28;20208;-87
2023/01/15 13:49:59;;;;;;;6.47;1.10;;;23.10;99.90;;;;;;5073854;28;20226;-87
2023/01/15 13:52:32;;;;;;;8.90;1.77;;;23.10;99.90;;;;;;5074089;28;20197;-87
2023/01/15 13:55:14;;;;;;;8.98;1.50;;;23.10;99.90;;;;;;5074002;28;20567;-87
2023/01/15 13:57:47;;;;;;;7.07;1.20;;;23.10;99.90;;;;;;5053889;28;20566;-87
2023/01/15 14:00:33;;;;;;;7.63;1.27;;;23.10;99.90;;;;;;5054625;28;20193;-87
2023/01/15 14:03:05;;;;;;;7.47;1.25;;;23.10;99.90;;;;;;5074065;28;20280;-87
2023/01/15 14:05:37;;;;;;;9.18;1.10;;;23.00;99.90;;;;;;5074034;28;20556;-87
2023/01/15 14:08:26;;;;;;;9.27;1.42;;;23.00;99.90;;;;;;5074430;28;20217;-87
2023/01/15 14:11:01;;;;;;;6.75;1.45;;;23.00;99.90;;;;;;5054451;28;20237;-84
2023/01/15 14:14:00;;;;;;;5.18;1.27;;;23.00;99.90;;;;;;5066149;28;20187;-88
2023/01/15 14:16:41;;;;;;;8.05;1.42;;;23.00;99.90;;;;;;5067618;28;20203;-87
2023/01/15 14:19:40;;;;;;;6.28;1.25;;;23.00;99.90;;;;;;5078236;28;20231;-88